createdAt,value
2022-10-13T00:00:11.022Z,7.63
2022-10-13T00:02:37.380Z,7.68
2022-10-13T00:05:04.015Z,7.69
2022-10-13T00:07:30.437Z,7.69
2022-10-13T00:09:56.799Z,7.66
2022-10-13T00:12:23.599Z,7.73
2022-10-13T00:14:50.524Z,7.76
2022-10-13T00:17:16.937Z,7.79
2022-10-13T00:19:43.445Z,7.79
2022-10-13T00:22:09.938Z,7.85
2022-10-13T00:24:36.306Z,7.91
2022-10-13T00:27:02.777Z,7.92
2022-10-13T00:29:31.041Z,7.96
2022-10-13T00:31:57.658Z,7.95
2022-10-13T00:34:24.003Z,7.95
2022-10-13T00:36:50.359Z,7.90
2022-10-13T00:39:16.993Z,7.77
2022-10-13T00:41:44.578Z,7.71
2022-10-13T00:44:48.255Z,7.65
2022-10-13T00:47:14.704Z,7.60
2022-10-13T00:49:41.099Z,7.58
2022-10-13T00:52:07.663Z,7.57
2022-10-13T00:54:34.365Z,7.57
2022-10-13T00:57:03.054Z,7.54
2022-10-13T00:59:29.870Z,7.56
2022-10-13T01:01:59.305Z,7.57
2022-10-13T01:04:29.358Z,7.59
2022-10-13T01:06:56.818Z,7.60
2022-10-13T01:09:23.508Z,7.61
2022-10-13T01:12:25.220Z,7.60
2022-10-13T01:15:23.767Z,7.59
2022-10-13T01:17:53.202Z,7.61
2022-10-13T01:20:37.616Z,7.59
2022-10-13T01:23:35.903Z,7.60
2022-10-13T01:26:39.939Z,7.63
2022-10-13T01:29:45.463Z,7.71
2022-10-13T01:32:25.032Z,7.68
2022-10-13T01:35:05.888Z,7.76
2022-10-13T01:37:45.888Z,7.79
2022-10-13T01:40:26.349Z,7.71
2022-10-13T01:43:08.488Z,7.68
2022-10-13T01:45:40.209Z,7.71
2022-10-13T01:48:10.745Z,7.75
2022-10-13T01:50:40.524Z,7.79
2022-10-13T01:53:08.308Z,7.89
2022-10-13T01:55:34.691Z,7.87
2022-10-13T01:58:02.314Z,7.84
2022-10-13T02:00:39.950Z,7.91
2022-10-13T02:03:18.099Z,7.87
2022-10-13T02:06:02.990Z,7.90
2022-10-13T02:08:57.790Z,7.98
2022-10-13T02:11:24.834Z,8.05
2022-10-13T02:14:01.619Z,8.12
2022-10-13T02:16:32.531Z,8.07
2022-10-13T02:18:59.251Z,8.08
2022-10-13T02:21:26.308Z,8.08
2022-10-13T02:23:54.903Z,8.17
2022-10-13T02:26:26.710Z,8.23
2022-10-13T02:28:53.261Z,8.26
2022-10-13T02:31:19.562Z,8.29
2022-10-13T02:33:46.062Z,8.31
2022-10-13T02:36:12.629Z,8.34
2022-10-13T02:38:41.767Z,8.31
2022-10-13T02:41:08.227Z,8.24
2022-10-13T02:43:34.780Z,8.18
2022-10-13T02:46:01.125Z,8.12
2022-10-13T02:48:27.662Z,8.14
2022-10-13T02:50:55.218Z,8.13
2022-10-13T02:53:21.687Z,8.13
2022-10-13T02:55:48.052Z,8.15
2022-10-13T02:58:17.496Z,8.15
2022-10-13T03:00:43.837Z,8.18
2022-10-13T03:03:12.277Z,8.22
2022-10-13T03:05:38.638Z,8.19
2022-10-13T03:08:05.563Z,8.20
2022-10-13T03:10:31.976Z,8.18
2022-10-13T03:12:58.672Z,8.18
2022-10-13T03:15:25.925Z,8.23
2022-10-13T03:17:52.647Z,8.31
2022-10-13T03:20:19.221Z,8.24
2022-10-13T03:22:49.573Z,8.18
2022-10-13T03:25:16.435Z,8.14
2022-10-13T03:27:49.205Z,8.14
2022-10-13T03:30:15.865Z,8.08
2022-10-13T03:32:44.412Z,8.06
2022-10-13T03:35:10.720Z,8.08
2022-10-13T03:37:37.228Z,8.09
2022-10-13T03:40:04.093Z,8.08
2022-10-13T03:42:30.761Z,8.06
2022-10-13T03:44:57.443Z,8.06
2022-10-13T03:47:24.236Z,8.01
2022-10-13T03:49:51.808Z,8.02
2022-10-13T03:52:18.635Z,7.98
2022-10-13T03:54:46.517Z,7.97
2022-10-13T03:57:13.061Z,7.99
2022-10-13T03:59:41.591Z,7.98
2022-10-13T04:02:09.446Z,7.98
2022-10-13T04:04:38.300Z,8.00
2022-10-13T04:07:05.341Z,8.05
2022-10-13T04:09:31.860Z,8.03
2022-10-13T04:11:58.305Z,8.03
2022-10-13T04:14:27.266Z,8.04
2022-10-13T04:16:53.726Z,8.10
2022-10-13T04:19:20.312Z,8.13
2022-10-13T04:21:53.211Z,8.12
2022-10-13T04:24:19.562Z,8.14
2022-10-13T04:26:46.107Z,8.18
2022-10-13T04:29:12.920Z,8.22
2022-10-13T04:31:40.574Z,8.23
2022-10-13T04:34:07.012Z,8.24
2022-10-13T04:36:33.633Z,8.25
2022-10-13T04:39:00.217Z,8.26
2022-10-13T04:41:26.960Z,8.27
2022-10-13T04:43:55.233Z,8.31
2022-10-13T04:46:26.847Z,8.34
2022-10-13T04:48:53.423Z,8.37
2022-10-13T04:51:22.627Z,8.40
2022-10-13T04:53:53.526Z,8.36
2022-10-13T04:56:19.920Z,8.30
2022-10-13T04:58:46.837Z,8.32
2022-10-13T05:01:21.379Z,8.33
2022-10-13T05:04:01.549Z,8.33
2022-10-13T05:06:33.998Z,8.31
2022-10-13T05:09:00.929Z,8.28
2022-10-13T05:11:28.369Z,8.24
2022-10-13T05:13:56.154Z,8.24
2022-10-13T05:16:24.695Z,8.25
2022-10-13T05:18:53.249Z,8.25
2022-10-13T05:21:22.991Z,8.21
2022-10-13T05:23:49.696Z,8.20
2022-10-13T05:26:18.416Z,8.21
2022-10-13T05:28:45.324Z,8.20
2022-10-13T05:31:20.268Z,8.24
2022-10-13T05:33:48.172Z,8.25
2022-10-13T05:36:18.343Z,8.23
2022-10-13T05:38:45.468Z,8.26
2022-10-13T05:41:13.523Z,8.31
2022-10-13T05:43:42.536Z,8.32
2022-10-13T05:46:10.011Z,8.36
2022-10-13T05:48:37.790Z,8.39
2022-10-13T05:51:12.240Z,8.43
2022-10-13T05:53:46.748Z,8.48
2022-10-13T05:56:29.899Z,8.56
2022-10-13T05:59:01.299Z,8.55
2022-10-13T06:01:32.800Z,8.62
2022-10-13T06:04:05.418Z,8.61
2022-10-13T06:06:32.157Z,8.64
2022-10-13T06:08:59.887Z,8.64
2022-10-13T06:11:26.454Z,8.63
2022-10-13T06:13:53.027Z,8.68
2022-10-13T06:16:19.896Z,8.64
2022-10-13T06:18:47.491Z,8.56
2022-10-13T06:21:13.938Z,8.61
2022-10-13T06:23:40.300Z,8.70
2022-10-13T06:26:08.158Z,8.74
2022-10-13T06:28:35.729Z,8.88
2022-10-13T06:31:05.385Z,8.85
2022-10-13T06:33:32.148Z,8.82
2022-10-13T06:36:05.896Z,8.94
2022-10-13T06:38:33.718Z,9.19
2022-10-13T06:41:05.316Z,9.22
2022-10-13T06:43:39.663Z,9.25
2022-10-13T06:46:06.837Z,9.35
2022-10-13T06:48:33.406Z,9.31
2022-10-13T06:51:08.536Z,9.31
2022-10-13T06:53:36.567Z,9.27
2022-10-13T06:56:05.739Z,9.30
2022-10-13T06:58:32.234Z,9.48
2022-10-13T07:00:58.711Z,9.51
2022-10-13T07:03:25.930Z,9.66
2022-10-13T07:05:52.981Z,9.77
2022-10-13T07:08:19.761Z,9.90
2022-10-13T07:10:46.286Z,10.04
2022-10-13T07:13:12.764Z,10.00
2022-10-13T07:15:41.910Z,10.18
2022-10-13T07:18:08.501Z,10.23
2022-10-13T07:20:35.542Z,10.27
2022-10-13T07:23:02.549Z,10.32
2022-10-13T07:25:29.087Z,10.46
2022-10-13T07:27:55.861Z,10.49
2022-10-13T07:30:22.813Z,10.65
2022-10-13T07:32:49.559Z,10.74
2022-10-13T07:35:16.378Z,10.86
2022-10-13T07:37:43.570Z,10.89
2022-10-13T07:40:11.218Z,10.84
2022-10-13T07:42:41.848Z,10.78
2022-10-13T07:45:10.024Z,10.84
2022-10-13T07:47:36.374Z,10.95
2022-10-13T07:50:03.210Z,11.02
2022-10-13T07:52:29.823Z,11.13
2022-10-13T07:54:57.000Z,11.23
2022-10-13T07:57:26.344Z,11.29
2022-10-13T07:59:52.877Z,11.39
2022-10-13T08:02:19.680Z,11.64
2022-10-13T08:04:47.091Z,11.72
2022-10-13T08:07:13.494Z,11.85
2022-10-13T08:09:42.471Z,11.93
2022-10-13T08:12:09.138Z,12.14
2022-10-13T08:14:36.283Z,12.36
2022-10-13T08:17:02.933Z,12.55
2022-10-13T08:19:29.450Z,12.80
2022-10-13T08:21:58.705Z,12.64
2022-10-13T08:24:25.823Z,12.92
2022-10-13T08:26:52.440Z,13.02
2022-10-13T08:29:23.405Z,13.04
2022-10-13T08:31:53.095Z,13.15
2022-10-13T08:34:20.343Z,13.01
2022-10-13T08:36:47.137Z,12.91
2022-10-13T08:39:14.053Z,12.93
2022-10-13T08:41:43.129Z,12.97
2022-10-13T08:45:06.270Z,12.80
2022-10-13T08:47:30.136Z,12.69
2022-10-13T08:50:01.969Z,12.75
2022-10-13T08:53:02.869Z,12.78
2022-10-13T08:55:39.706Z,12.77
2022-10-13T08:58:21.927Z,12.94
2022-10-13T09:00:48.721Z,12.97
2022-10-13T09:03:25.353Z,13.25
2022-10-13T09:06:22.711Z,13.21
2022-10-13T09:08:59.713Z,13.60
2022-10-13T09:11:28.818Z,13.57
2022-10-13T09:13:59.386Z,13.51
2022-10-13T09:16:36.968Z,13.68
2022-10-13T09:19:29.617Z,13.92
2022-10-13T09:21:58.915Z,13.79
2022-10-13T09:24:26.938Z,14.01
2022-10-13T09:27:06.805Z,14.17
2022-10-13T09:29:33.330Z,13.89
2022-10-13T09:32:35.298Z,14.04
2022-10-13T09:35:20.661Z,14.21
2022-10-13T09:38:02.535Z,14.54
2022-10-13T09:40:29.131Z,14.34
2022-10-13T09:42:59.523Z,14.66
2022-10-13T09:45:27.582Z,14.79
2022-10-13T09:48:00.401Z,14.94
2022-10-13T09:50:29.578Z,15.02
2022-10-13T09:53:32.517Z,15.08
2022-10-13T09:56:22.021Z,15.09
2022-10-13T09:59:02.205Z,15.13
2022-10-13T10:01:37.088Z,14.88
2022-10-13T10:04:11.054Z,14.92
2022-10-13T10:06:40.527Z,14.87
2022-10-13T10:09:18.454Z,14.99
2022-10-13T10:11:50.376Z,15.12
2022-10-13T10:14:25.883Z,15.11
2022-10-13T10:17:15.801Z,15.06
2022-10-13T10:20:06.841Z,14.90
2022-10-13T10:22:40.896Z,14.81
2022-10-13T10:25:19.483Z,14.71
2022-10-13T10:28:10.746Z,15.04
2022-10-13T10:30:55.195Z,14.89
2022-10-13T10:34:04.362Z,15.19
2022-10-13T10:36:33.626Z,15.08
2022-10-13T10:39:27.026Z,14.90
2022-10-13T10:42:07.662Z,15.05
2022-10-13T10:44:41.272Z,14.89
2022-10-13T10:47:23.659Z,15.08
2022-10-13T10:49:58.466Z,15.28
2022-10-13T10:52:37.881Z,15.38
2022-10-13T10:55:30.133Z,15.41
2022-10-13T10:58:46.934Z,15.20
2022-10-13T11:01:37.593Z,15.03
2022-10-13T11:04:07.337Z,15.23
2022-10-13T11:06:35.988Z,15.33
2022-10-13T11:09:04.961Z,15.37
2022-10-13T11:11:37.547Z,15.47
2022-10-13T11:14:07.464Z,15.51
2022-10-13T11:16:39.977Z,15.39
2022-10-13T11:19:29.827Z,15.38
2022-10-13T11:21:59.021Z,15.38
2022-10-13T11:24:34.460Z,15.60
2022-10-13T11:27:23.536Z,15.60
2022-10-13T11:29:58.886Z,15.60
2022-10-13T11:32:28.670Z,15.88
2022-10-13T11:35:07.241Z,15.88
2022-10-13T11:38:06.677Z,16.07
2022-10-13T11:40:58.485Z,16.26
2022-10-13T11:43:47.932Z,16.12
2022-10-13T11:46:33.675Z,16.49
2022-10-13T11:49:21.435Z,16.22
2022-10-13T11:52:25.458Z,16.34
2022-10-13T11:54:57.303Z,16.17
2022-10-13T11:57:26.895Z,16.19
2022-10-13T11:59:58.215Z,16.26
2022-10-13T12:02:26.861Z,16.27
2022-10-13T12:05:21.434Z,16.16
2022-10-13T12:07:56.292Z,15.93
2022-10-13T12:10:33.224Z,15.99
2022-10-13T12:13:00.476Z,16.09
2022-10-13T12:15:39.550Z,15.98
2022-10-13T12:18:29.370Z,16.28
2022-10-13T12:21:01.377Z,16.14
2022-10-13T12:23:32.803Z,15.68
2022-10-13T12:26:03.647Z,15.67
2022-10-13T12:28:52.881Z,16.23
2022-10-13T12:31:27.777Z,16.14
2022-10-13T12:34:02.035Z,16.39
2022-10-13T12:36:32.197Z,16.21
2022-10-13T12:39:09.058Z,16.47
2022-10-13T12:41:38.946Z,16.82
2022-10-13T12:44:07.855Z,16.75
2022-10-13T12:46:44.569Z,16.63
2022-10-13T12:49:17.324Z,16.35
2022-10-13T12:51:51.770Z,16.65
2022-10-13T12:54:21.801Z,16.72
2022-10-13T12:56:53.782Z,16.58
2022-10-13T12:59:24.712Z,16.70
2022-10-13T13:02:03.916Z,16.72
2022-10-13T13:04:39.850Z,16.51
2022-10-13T13:07:25.226Z,16.57
2022-10-13T13:10:15.802Z,16.54
2022-10-13T13:12:44.354Z,16.86
2022-10-13T13:15:25.895Z,16.54
2022-10-13T13:17:58.670Z,16.37
2022-10-13T13:20:32.420Z,16.44
2022-10-13T13:22:59.953Z,16.26
2022-10-13T13:25:26.868Z,16.59
2022-10-13T13:27:55.354Z,16.68
2022-10-13T13:30:23.932Z,16.84
2022-10-13T13:32:51.019Z,16.86
2022-10-13T13:35:18.544Z,17.06
2022-10-13T13:37:53.741Z,17.05
2022-10-13T13:40:22.907Z,17.08
2022-10-13T13:42:49.729Z,17.11
2022-10-13T13:45:19.095Z,17.04
2022-10-13T13:47:47.289Z,16.68
2022-10-13T13:50:17.534Z,16.50
2022-10-13T13:52:44.162Z,16.69
2022-10-13T13:55:10.830Z,16.60
2022-10-13T13:57:37.214Z,16.64
2022-10-13T14:00:06.731Z,16.62
2022-10-13T14:02:33.186Z,16.81
2022-10-13T14:04:59.685Z,16.75
2022-10-13T14:07:27.313Z,16.73
2022-10-13T14:09:57.837Z,16.59
2022-10-13T14:12:30.556Z,16.63
2022-10-13T14:14:57.214Z,16.63
2022-10-13T14:17:23.872Z,16.62
2022-10-13T14:19:50.588Z,16.48
2022-10-13T14:22:20.273Z,16.37
2022-10-13T14:24:47.258Z,16.47
2022-10-13T14:27:15.970Z,16.48
2022-10-13T14:29:42.498Z,16.45
2022-10-13T14:32:09.636Z,16.47
2022-10-13T14:34:36.358Z,16.68
2022-10-13T14:37:02.773Z,16.82
2022-10-13T14:39:29.316Z,16.67
2022-10-13T14:41:56.229Z,16.63
2022-10-13T14:44:23.057Z,16.58
2022-10-13T14:46:49.735Z,16.54
2022-10-13T14:49:16.350Z,16.51
2022-10-13T14:51:43.150Z,16.53
2022-10-13T14:54:09.841Z,16.43
2022-10-13T14:56:36.363Z,16.40
2022-10-13T14:59:05.835Z,16.32
2022-10-13T15:01:32.614Z,16.26
2022-10-13T15:04:00.422Z,16.16
2022-10-13T15:06:28.244Z,16.09
2022-10-13T15:08:55.249Z,16.05
2022-10-13T15:11:22.783Z,16.04
2022-10-13T15:13:49.837Z,15.99
2022-10-13T15:16:19.577Z,15.93
2022-10-13T15:18:46.117Z,15.89
2022-10-13T15:21:13.095Z,15.84
2022-10-13T15:23:40.237Z,15.81
2022-10-13T15:26:07.502Z,15.80
2022-10-13T15:28:38.268Z,15.77
2022-10-13T15:31:05.551Z,15.79
2022-10-13T15:33:33.620Z,15.82
2022-10-13T15:36:00.798Z,15.83
2022-10-13T15:38:27.739Z,15.87
2022-10-13T15:40:59.795Z,15.79
2022-10-13T15:43:27.454Z,15.74
2022-10-13T15:46:14.962Z,15.69
2022-10-13T15:48:41.900Z,15.63
2022-10-13T15:51:19.474Z,15.53
2022-10-13T15:53:47.686Z,15.44
2022-10-13T15:56:15.179Z,15.41
2022-10-13T15:58:42.144Z,15.40
2022-10-13T16:01:10.857Z,15.38
2022-10-13T16:03:37.799Z,15.37
2022-10-13T16:06:06.630Z,15.35
2022-10-13T16:08:36.732Z,15.32
2022-10-13T16:11:08.127Z,15.29
2022-10-13T16:13:37.828Z,15.27
2022-10-13T16:16:08.039Z,15.19
2022-10-13T16:18:39.831Z,15.14
2022-10-13T16:21:18.850Z,15.09
2022-10-13T16:23:47.264Z,15.06
2022-10-13T16:26:14.966Z,15.01
2022-10-13T16:28:41.763Z,14.99
2022-10-13T16:31:11.494Z,14.95
2022-10-13T16:33:40.451Z,14.88
2022-10-13T16:36:19.871Z,14.85
2022-10-13T16:38:47.180Z,14.83
2022-10-13T16:41:19.287Z,14.83
2022-10-13T16:43:46.567Z,14.75
2022-10-13T16:46:15.777Z,14.68
2022-10-13T16:48:43.530Z,14.65
2022-10-13T16:51:14.680Z,14.58
2022-10-13T16:53:41.461Z,14.55
2022-10-13T16:56:09.207Z,14.51
2022-10-13T16:58:36.722Z,14.49
2022-10-13T17:01:05.570Z,14.45
2022-10-13T17:03:33.562Z,14.42
2022-10-13T17:06:00.680Z,14.37
2022-10-13T17:08:27.145Z,14.33
2022-10-13T17:10:57.968Z,14.27
2022-10-13T17:13:24.946Z,14.20
2022-10-13T17:15:52.737Z,14.14
2022-10-13T17:18:19.877Z,14.06
2022-10-13T17:21:04.557Z,14.03
2022-10-13T17:23:31.958Z,14.02
2022-10-13T17:26:07.189Z,13.92
2022-10-13T17:28:36.704Z,13.90
2022-10-13T17:31:09.515Z,13.81
2022-10-13T17:33:37.552Z,13.77
2022-10-13T17:36:11.078Z,13.71
2022-10-13T17:38:38.584Z,13.74
2022-10-13T17:41:07.530Z,13.69
2022-10-13T17:43:35.512Z,13.60
2022-10-13T17:49:01.237Z,13.57
2022-10-13T17:51:28.724Z,13.56
2022-10-13T17:53:55.835Z,13.56
2022-10-13T17:56:24.522Z,13.50
2022-10-13T17:58:52.054Z,13.46
2022-10-13T18:01:22.029Z,13.43
2022-10-13T18:03:50.928Z,13.39
2022-10-13T18:06:22.929Z,13.38
2022-10-13T18:08:50.227Z,13.38
2022-10-13T18:11:18.868Z,13.36
2022-10-13T18:13:45.771Z,13.35
2022-10-13T18:16:21.710Z,13.33
2022-10-13T18:18:49.670Z,13.31
2022-10-13T18:21:21.115Z,13.31
2022-10-13T18:23:47.860Z,13.29
2022-10-13T18:26:19.445Z,13.31
2022-10-13T18:28:47.796Z,13.24
2022-10-13T18:31:16.960Z,13.23
2022-10-13T18:33:44.072Z,13.20
2022-10-13T18:36:28.880Z,13.16
2022-10-13T18:39:01.647Z,13.18
2022-10-13T18:41:28.216Z,13.11
2022-10-13T18:43:55.256Z,13.09
2022-10-13T18:46:21.888Z,13.12
2022-10-13T18:48:48.361Z,13.07
2022-10-13T18:51:17.107Z,13.07
2022-10-13T18:53:45.335Z,13.08
2022-10-13T18:56:18.184Z,13.10
2022-10-13T18:58:45.411Z,13.04
2022-10-13T19:01:14.676Z,13.03
2022-10-13T19:03:41.984Z,13.01
2022-10-13T19:06:10.764Z,13.02
2022-10-13T19:08:37.583Z,13.00
2022-10-13T19:11:17.796Z,13.02
2022-10-13T19:13:45.486Z,13.01
2022-10-13T19:16:13.888Z,13.01
2022-10-13T19:18:41.612Z,12.99
2022-10-13T19:21:08.948Z,13.00
2022-10-13T19:23:35.785Z,12.95
2022-10-13T19:26:14.634Z,12.92
2022-10-13T19:28:43.209Z,12.93
2022-10-13T19:31:12.673Z,12.90
2022-10-13T19:33:44.389Z,12.92
2022-10-13T19:36:20.032Z,12.87
2022-10-13T19:38:55.268Z,12.87
2022-10-13T19:41:22.702Z,12.85
2022-10-13T19:43:50.272Z,12.84
2022-10-13T19:46:17.146Z,12.81
2022-10-13T19:48:43.643Z,12.82
2022-10-13T19:51:11.042Z,12.79
2022-10-13T19:53:39.340Z,12.78
2022-10-13T19:56:06.751Z,12.77
2022-10-13T19:58:34.402Z,12.77
2022-10-13T20:01:09.862Z,12.76
2022-10-13T20:03:36.375Z,12.74
2022-10-13T20:06:04.889Z,12.75
2022-10-13T20:08:31.831Z,12.74
2022-10-13T20:10:58.659Z,12.74
2022-10-13T20:13:28.360Z,12.68
2022-10-13T20:15:54.721Z,12.62
2022-10-13T20:18:24.883Z,12.59
2022-10-13T20:20:51.618Z,12.58
2022-10-13T20:23:18.041Z,12.56
2022-10-13T20:25:45.041Z,12.53
2022-10-13T20:28:11.679Z,12.52
2022-10-13T20:30:40.621Z,12.48
2022-10-13T20:33:07.308Z,12.48
2022-10-13T20:35:33.829Z,12.47
2022-10-13T20:38:00.492Z,12.47
2022-10-13T20:40:30.840Z,12.46
2022-10-13T20:42:58.294Z,12.43
2022-10-13T20:45:25.995Z,12.41
2022-10-13T20:47:52.831Z,12.39
2022-10-13T20:50:19.462Z,12.38
2022-10-13T20:52:48.244Z,12.36
2022-10-13T20:55:14.847Z,12.34
2022-10-13T20:57:41.274Z,12.40
2022-10-13T21:00:10.041Z,12.40
2022-10-13T21:02:38.038Z,12.37
2022-10-13T21:05:04.810Z,12.34
2022-10-13T21:07:31.395Z,12.31
2022-10-13T21:09:57.865Z,12.28
2022-10-13T21:12:24.427Z,12.22
2022-10-13T21:14:52.434Z,12.17
2022-10-13T21:17:21.823Z,12.15
2022-10-13T21:19:48.966Z,12.14
2022-10-13T21:22:15.977Z,12.12
2022-10-13T21:24:42.623Z,12.11
2022-10-13T21:27:09.236Z,12.08
2022-10-13T21:29:35.614Z,12.05
2022-10-13T21:32:02.208Z,12.08
2022-10-13T21:34:31.139Z,12.10
2022-10-13T21:36:57.685Z,12.08
2022-10-13T21:39:24.539Z,12.03
2022-10-13T21:41:51.216Z,12.04
2022-10-13T21:44:18.566Z,12.07
2022-10-13T21:46:45.267Z,12.03
2022-10-13T21:49:11.915Z,12.00
2022-10-13T21:51:40.163Z,11.99
2022-10-13T21:54:13.475Z,11.98
2022-10-13T21:56:41.626Z,11.99
2022-10-13T21:59:11.099Z,11.96
2022-10-13T22:01:37.488Z,11.94
2022-10-13T22:04:05.042Z,11.93
2022-10-13T22:06:32.561Z,11.89
2022-10-13T22:09:00.865Z,11.87
2022-10-13T22:11:31.813Z,11.86
2022-10-13T22:14:00.382Z,11.85
2022-10-13T22:16:36.215Z,11.83
2022-10-13T22:19:02.791Z,11.80
2022-10-13T22:21:33.713Z,11.76
2022-10-13T22:24:03.728Z,11.72
2022-10-13T22:26:32.441Z,11.70
2022-10-13T22:29:00.905Z,11.66
2022-10-13T22:31:28.204Z,11.63
2022-10-13T22:33:55.609Z,11.54
2022-10-13T22:36:23.481Z,11.52
2022-10-13T22:38:51.631Z,11.52
2022-10-13T22:41:19.394Z,11.53
2022-10-13T22:43:50.466Z,11.55
2022-10-13T22:46:21.063Z,11.57
2022-10-13T22:48:48.169Z,11.60
2022-10-13T22:51:20.459Z,11.61
2022-10-13T22:53:48.534Z,11.60
2022-10-13T22:56:26.467Z,11.63
2022-10-13T22:58:58.808Z,11.64
2022-10-13T23:01:26.441Z,11.66
2022-10-13T23:03:55.764Z,11.64
2022-10-13T23:06:24.833Z,11.65
2022-10-13T23:08:53.403Z,11.65
2022-10-13T23:11:20.348Z,11.63
2022-10-13T23:13:47.597Z,11.64
2022-10-13T23:16:20.412Z,11.65
2022-10-13T23:18:47.657Z,11.64
2022-10-13T23:21:18.526Z,11.69
2022-10-13T23:23:45.525Z,11.69
2022-10-13T23:26:14.551Z,11.68
2022-10-13T23:28:41.602Z,11.66
2022-10-13T23:31:12.322Z,11.68
2022-10-13T23:33:39.066Z,11.66
2022-10-13T23:36:06.717Z,11.70
2022-10-13T23:38:33.806Z,11.71
2022-10-13T23:41:12.316Z,11.68
2022-10-13T23:43:39.148Z,11.69
2022-10-13T23:46:07.718Z,11.72
2022-10-13T23:48:34.289Z,11.72
2022-10-13T23:51:10.027Z,11.72
2022-10-13T23:53:39.091Z,11.70
2022-10-13T23:56:08.184Z,11.71
2022-10-13T23:58:40.560Z,11.69
